sensor_id;sensor_type;location;lat;lon;timestamp;temperature;humidity
74294;DHT22;64044;59.904;10.738;2023-07-31T00:01:46;20.00;63.30
74294;DHT22;64044;59.904;10.738;2023-07-31T00:04:12;20.00;63.30
74294;DHT22;64044;59.904;10.738;2023-07-31T00:06:37;20.00;63.40
74294;DHT22;64044;59.904;10.738;2023-07-31T00:09:03;20.00;63.50
74294;DHT22;64044;59.904;10.738;2023-07-31T00:11:29;20.00;63.60
74294;DHT22;64044;59.904;10.738;2023-07-31T00:13:54;20.00;63.50
74294;DHT22;64044;59.904;10.738;2023-07-31T00:16:20;20.00;63.50
74294;DHT22;64044;59.904;10.738;2023-07-31T00:18:46;19.90;63.50
74294;DHT22;64044;59.904;10.738;2023-07-31T00:21:12;20.00;63.70
74294;DHT22;64044;59.904;10.738;2023-07-31T00:23:37;19.90;63.70
74294;DHT22;64044;59.904;10.738;2023-07-31T00:26:03;19.90;63.80
74294;DHT22;64044;59.904;10.738;2023-07-31T00:28:29;19.90;63.90
74294;DHT22;64044;59.904;10.738;2023-07-31T00:30:54;19.90;63.90
74294;DHT22;64044;59.904;10.738;2023-07-31T00:33:20;19.90;64.00
74294;DHT22;64044;59.904;10.738;2023-07-31T00:35:46;19.90;64.00
74294;DHT22;64044;59.904;10.738;2023-07-31T00:38:15;19.90;64.00
74294;DHT22;64044;59.904;10.738;2023-07-31T00:40:40;19.90;64.00
74294;DHT22;64044;59.904;10.738;2023-07-31T00:43:06;19.90;64.10
74294;DHT22;64044;59.904;10.738;2023-07-31T00:45:32;19.90;64.20
74294;DHT22;64044;59.904;10.738;2023-07-31T00:47:59;19.90;64.30
74294;DHT22;64044;59.904;10.738;2023-07-31T00:50:25;19.90;64.30
74294;DHT22;64044;59.904;10.738;2023-07-31T00:52:51;19.90;64.40
74294;DHT22;64044;59.904;10.738;2023-07-31T00:55:18;19.90;64.30
74294;DHT22;64044;59.904;10.738;2023-07-31T00:57:45;19.90;64.20
74294;DHT22;64044;59.904;10.738;2023-07-31T01:00:11;19.90;64.20
74294;DHT22;64044;59.904;10.738;2023-07-31T01:02:37;19.90;64.10
74294;DHT22;64044;59.904;10.738;2023-07-31T01:05:03;19.80;64.10
74294;DHT22;64044;59.904;10.738;2023-07-31T01:08:04;19.80;64.00
74294;DHT22;64044;59.904;10.738;2023-07-31T01:10:46;19.80;64.80
74294;DHT22;64044;59.904;10.738;2023-07-31T01:13:13;19.80;64.10
74294;DHT22;64044;59.904;10.738;2023-07-31T01:15:39;19.80;64.10
74294;DHT22;64044;59.904;10.738;2023-07-31T01:18:04;19.70;64.30
74294;DHT22;64044;59.904;10.738;2023-07-31T01:20:31;19.70;64.50
74294;DHT22;64044;59.904;10.738;2023-07-31T01:23:08;19.70;64.60
74294;DHT22;64044;59.904;10.738;2023-07-31T01:31:00;19.70;64.30
74294;DHT22;64044;59.904;10.738;2023-07-31T01:33:28;19.70;64.40
74294;DHT22;64044;59.904;10.738;2023-07-31T01:35:54;19.60;64.50
74294;DHT22;64044;59.904;10.738;2023-07-31T01:38:21;19.60;64.70
74294;DHT22;64044;59.904;10.738;2023-07-31T01:40:51;19.60;65.00
74294;DHT22;64044;59.904;10.738;2023-07-31T01:43:18;19.60;65.20
74294;DHT22;64044;59.904;10.738;2023-07-31T01:45:43;19.60;64.90
74294;DHT22;64044;59.904;10.738;2023-07-31T01:48:09;19.60;64.90
74294;DHT22;64044;59.904;10.738;2023-07-31T01:50:35;19.50;64.80
74294;DHT22;64044;59.904;10.738;2023-07-31T01:53:00;19.50;65.00
74294;DHT22;64044;59.904;10.738;2023-07-31T01:55:26;19.50;65.00
74294;DHT22;64044;59.904;10.738;2023-07-31T01:57:52;19.50;65.00
74294;DHT22;64044;59.904;10.738;2023-07-31T02:00:18;19.50;65.00
74294;DHT22;64044;59.904;10.738;2023-07-31T02:02:43;19.50;65.00
74294;DHT22;64044;59.904;10.738;2023-07-31T02:05:09;19.40;65.00
74294;DHT22;64044;59.904;10.738;2023-07-31T02:07:35;19.40;65.00
74294;DHT22;64044;59.904;10.738;2023-07-31T02:10:01;19.30;65.00
74294;DHT22;64044;59.904;10.738;2023-07-31T02:12:26;19.30;65.00
74294;DHT22;64044;59.904;10.738;2023-07-31T02:14:52;19.20;65.00
74294;DHT22;64044;59.904;10.738;2023-07-31T02:17:18;19.20;65.20
74294;DHT22;64044;59.904;10.738;2023-07-31T02:19:43;19.20;65.30
74294;DHT22;64044;59.904;10.738;2023-07-31T02:22:09;19.20;65.40
74294;DHT22;64044;59.904;10.738;2023-07-31T02:24:35;19.10;65.40
74294;DHT22;64044;59.904;10.738;2023-07-31T02:27:00;19.10;65.60
74294;DHT22;64044;59.904;10.738;2023-07-31T02:29:26;19.00;65.70
74294;DHT22;64044;59.904;10.738;2023-07-31T02:31:52;19.00;65.80
74294;DHT22;64044;59.904;10.738;2023-07-31T02:34:17;19.00;65.90
74294;DHT22;64044;59.904;10.738;2023-07-31T02:36:43;19.00;65.90
74294;DHT22;64044;59.904;10.738;2023-07-31T02:39:09;19.00;66.00
74294;DHT22;64044;59.904;10.738;2023-07-31T02:41:34;18.90;66.00
74294;DHT22;64044;59.904;10.738;2023-07-31T02:44:00;18.90;66.00
74294;DHT22;64044;59.904;10.738;2023-07-31T02:46:26;18.90;66.20
74294;DHT22;64044;59.904;10.738;2023-07-31T02:48:51;18.90;66.20
74294;DHT22;64044;59.904;10.738;2023-07-31T02:51:17;18.90;66.40
74294;DHT22;64044;59.904;10.738;2023-07-31T02:53:43;18.90;66.50
74294;DHT22;64044;59.904;10.738;2023-07-31T02:56:08;19.00;66.70
74294;DHT22;64044;59.904;10.738;2023-07-31T02:58:34;19.00;66.80
74294;DHT22;64044;59.904;10.738;2023-07-31T03:01:00;19.00;67.00
74294;DHT22;64044;59.904;10.738;2023-07-31T03:03:25;19.00;66.70
74294;DHT22;64044;59.904;10.738;2023-07-31T03:05:51;19.00;66.80
74294;DHT22;64044;59.904;10.738;2023-07-31T03:08:18;19.00;66.70
74294;DHT22;64044;59.904;10.738;2023-07-31T03:10:44;19.10;66.70
74294;DHT22;64044;59.904;10.738;2023-07-31T03:13:09;19.10;66.70
74294;DHT22;64044;59.904;10.738;2023-07-31T03:15:35;19.00;66.60
74294;DHT22;64044;59.904;10.738;2023-07-31T03:18:01;19.10;67.40
74294;DHT22;64044;59.904;10.738;2023-07-31T03:20:26;19.10;66.70
74294;DHT22;64044;59.904;10.738;2023-07-31T03:22:52;19.10;66.80
74294;DHT22;64044;59.904;10.738;2023-07-31T03:25:18;19.10;66.70
74294;DHT22;64044;59.904;10.738;2023-07-31T03:27:43;19.10;66.60
74294;DHT22;64044;59.904;10.738;2023-07-31T03:30:09;19.10;66.60
74294;DHT22;64044;59.904;10.738;2023-07-31T03:32:35;19.10;66.50
74294;DHT22;64044;59.904;10.738;2023-07-31T03:35:01;19.10;66.40
74294;DHT22;64044;59.904;10.738;2023-07-31T03:37:26;19.10;66.40
74294;DHT22;64044;59.904;10.738;2023-07-31T03:39:52;19.10;66.50
74294;DHT22;64044;59.904;10.738;2023-07-31T03:42:18;19.10;66.50
74294;DHT22;64044;59.904;10.738;2023-07-31T03:44:43;19.10;66.50
74294;DHT22;64044;59.904;10.738;2023-07-31T03:47:09;19.10;66.50
74294;DHT22;64044;59.904;10.738;2023-07-31T03:49:35;19.10;66.50
74294;DHT22;64044;59.904;10.738;2023-07-31T03:52:00;19.10;66.60
74294;DHT22;64044;59.904;10.738;2023-07-31T03:54:26;19.10;66.60
74294;DHT22;64044;59.904;10.738;2023-07-31T03:56:52;19.10;66.60
74294;DHT22;64044;59.904;10.738;2023-07-31T03:59:17;19.10;66.50
74294;DHT22;64044;59.904;10.738;2023-07-31T04:01:43;19.10;66.60
74294;DHT22;64044;59.904;10.738;2023-07-31T04:04:09;19.10;66.50
74294;DHT22;64044;59.904;10.738;2023-07-31T04:06:34;19.10;66.40
74294;DHT22;64044;59.904;10.738;2023-07-31T04:09:00;19.10;66.40
74294;DHT22;64044;59.904;10.738;2023-07-31T04:11:26;19.10;66.40
74294;DHT22;64044;59.904;10.738;2023-07-31T04:13:52;19.10;66.50
74294;DHT22;64044;59.904;10.738;2023-07-31T04:16:17;19.00;66.50
74294;DHT22;64044;59.904;10.738;2023-07-31T04:18:43;19.00;66.50
74294;DHT22;64044;59.904;10.738;2023-07-31T04:21:09;19.00;66.60
74294;DHT22;64044;59.904;10.738;2023-07-31T04:23:35;19.00;66.70
74294;DHT22;64044;59.904;10.738;2023-07-31T04:26:01;19.00;66.70
74294;DHT22;64044;59.904;10.738;2023-07-31T04:28:27;19.00;66.90
74294;DHT22;64044;59.904;10.738;2023-07-31T04:30:52;19.00;66.90
74294;DHT22;64044;59.904;10.738;2023-07-31T04:33:19;19.10;67.00
74294;DHT22;64044;59.904;10.738;2023-07-31T04:35:52;19.10;67.10
74294;DHT22;64044;59.904;10.738;2023-07-31T04:38:21;19.10;67.30
74294;DHT22;64044;59.904;10.738;2023-07-31T04:40:47;19.10;67.00
74294;DHT22;64044;59.904;10.738;2023-07-31T04:43:13;19.20;66.90
74294;DHT22;64044;59.904;10.738;2023-07-31T04:45:39;19.20;66.80
74294;DHT22;64044;59.904;10.738;2023-07-31T04:48:04;19.20;67.30
74294;DHT22;64044;59.904;10.738;2023-07-31T04:50:30;19.20;66.80
74294;DHT22;64044;59.904;10.738;2023-07-31T04:52:56;19.30;66.70
74294;DHT22;64044;59.904;10.738;2023-07-31T04:55:22;19.30;66.60
74294;DHT22;64044;59.904;10.738;2023-07-31T04:57:48;19.30;66.50
74294;DHT22;64044;59.904;10.738;2023-07-31T05:00:13;19.40;66.50
74294;DHT22;64044;59.904;10.738;2023-07-31T05:02:39;19.40;66.40
74294;DHT22;64044;59.904;10.738;2023-07-31T05:05:05;19.40;66.30
74294;DHT22;64044;59.904;10.738;2023-07-31T05:07:31;19.50;66.30
74294;DHT22;64044;59.904;10.738;2023-07-31T05:09:56;19.50;66.20
74294;DHT22;64044;59.904;10.738;2023-07-31T05:12:22;19.50;66.30
74294;DHT22;64044;59.904;10.738;2023-07-31T05:14:48;19.50;66.10
74294;DHT22;64044;59.904;10.738;2023-07-31T05:17:13;19.60;66.20
74294;DHT22;64044;59.904;10.738;2023-07-31T05:20:05;19.60;66.00
74294;DHT22;64044;59.904;10.738;2023-07-31T05:22:31;19.60;65.90
74294;DHT22;64044;59.904;10.738;2023-07-31T05:24:56;19.60;65.70
74294;DHT22;64044;59.904;10.738;2023-07-31T05:27:22;19.70;65.50
74294;DHT22;64044;59.904;10.738;2023-07-31T05:29:48;19.70;65.20
74294;DHT22;64044;59.904;10.738;2023-07-31T05:32:13;19.70;65.10
74294;DHT22;64044;59.904;10.738;2023-07-31T05:34:39;19.70;65.00
74294;DHT22;64044;59.904;10.738;2023-07-31T05:37:05;19.70;64.90
74294;DHT22;64044;59.904;10.738;2023-07-31T05:39:31;19.70;64.70
74294;DHT22;64044;59.904;10.738;2023-07-31T05:41:57;19.70;64.90
74294;DHT22;64044;59.904;10.738;2023-07-31T05:44:22;19.70;64.80
74294;DHT22;64044;59.904;10.738;2023-07-31T05:46:48;19.70;64.80
74294;DHT22;64044;59.904;10.738;2023-07-31T05:49:14;19.70;64.90
74294;DHT22;64044;59.904;10.738;2023-07-31T05:51:39;19.80;64.80
74294;DHT22;64044;59.904;10.738;2023-07-31T05:54:05;19.70;64.70
74294;DHT22;64044;59.904;10.738;2023-07-31T05:56:31;19.80;64.80
74294;DHT22;64044;59.904;10.738;2023-07-31T05:58:57;19.80;65.10
74294;DHT22;64044;59.904;10.738;2023-07-31T06:01:22;19.80;65.00
74294;DHT22;64044;59.904;10.738;2023-07-31T06:03:48;19.90;65.00
74294;DHT22;64044;59.904;10.738;2023-07-31T06:06:14;19.90;64.90
74294;DHT22;64044;59.904;10.738;2023-07-31T06:08:40;20.00;64.70
74294;DHT22;64044;59.904;10.738;2023-07-31T06:11:06;20.00;64.50
74294;DHT22;64044;59.904;10.738;2023-07-31T06:13:34;20.10;64.50
74294;DHT22;64044;59.904;10.738;2023-07-31T06:15:59;20.10;64.40
74294;DHT22;64044;59.904;10.738;2023-07-31T06:18:25;20.20;65.10
74294;DHT22;64044;59.904;10.738;2023-07-31T06:20:51;20.20;64.20
74294;DHT22;64044;59.904;10.738;2023-07-31T06:23:19;20.20;63.80
74294;DHT22;64044;59.904;10.738;2023-07-31T06:25:46;20.30;63.60
74294;DHT22;64044;59.904;10.738;2023-07-31T06:28:11;20.30;63.40
74294;DHT22;64044;59.904;10.738;2023-07-31T06:30:37;20.30;63.50
74294;DHT22;64044;59.904;10.738;2023-07-31T06:33:03;20.30;63.60
74294;DHT22;64044;59.904;10.738;2023-07-31T06:35:28;20.30;64.50
74294;DHT22;64044;59.904;10.738;2023-07-31T06:37:54;20.40;63.50
74294;DHT22;64044;59.904;10.738;2023-07-31T06:40:20;20.40;63.20
74294;DHT22;64044;59.904;10.738;2023-07-31T06:42:45;20.40;63.00
74294;DHT22;64044;59.904;10.738;2023-07-31T06:45:11;20.50;63.00
74294;DHT22;64044;59.904;10.738;2023-07-31T06:47:37;20.50;62.80
74294;DHT22;64044;59.904;10.738;2023-07-31T06:50:02;20.60;62.70
74294;DHT22;64044;59.904;10.738;2023-07-31T06:52:28;20.60;62.70
74294;DHT22;64044;59.904;10.738;2023-07-31T06:55:16;20.60;62.50
74294;DHT22;64044;59.904;10.738;2023-07-31T06:57:48;20.70;62.40
74294;DHT22;64044;59.904;10.738;2023-07-31T07:00:14;20.70;62.20
74294;DHT22;64044;59.904;10.738;2023-07-31T07:02:40;20.70;62.20
74294;DHT22;64044;59.904;10.738;2023-07-31T07:05:06;20.70;61.90
74294;DHT22;64044;59.904;10.738;2023-07-31T07:07:32;20.80;62.00
74294;DHT22;64044;59.904;10.738;2023-07-31T07:09:58;20.80;61.80
74294;DHT22;64044;59.904;10.738;2023-07-31T07:12:30;20.80;61.70
74294;DHT22;64044;59.904;10.738;2023-07-31T07:14:56;20.90;61.50
74294;DHT22;64044;59.904;10.738;2023-07-31T07:17:23;20.90;61.50
74294;DHT22;64044;59.904;10.738;2023-07-31T07:19:49;20.90;61.40
74294;DHT22;64044;59.904;10.738;2023-07-31T07:22:15;21.00;61.40
74294;DHT22;64044;59.904;10.738;2023-07-31T07:24:41;21.00;61.20
74294;DHT22;64044;59.904;10.738;2023-07-31T07:27:07;21.00;61.00
74294;DHT22;64044;59.904;10.738;2023-07-31T07:29:34;21.10;60.90
74294;DHT22;64044;59.904;10.738;2023-07-31T07:32:00;21.10;60.80
74294;DHT22;64044;59.904;10.738;2023-07-31T07:34:27;21.10;60.60
74294;DHT22;64044;59.904;10.738;2023-07-31T07:36:53;21.20;60.60
74294;DHT22;64044;59.904;10.738;2023-07-31T07:39:19;21.20;60.20
74294;DHT22;64044;59.904;10.738;2023-07-31T07:41:44;21.30;60.00
74294;DHT22;64044;59.904;10.738;2023-07-31T07:44:10;21.30;59.90
74294;DHT22;64044;59.904;10.738;2023-07-31T07:46:36;21.40;59.90
74294;DHT22;64044;59.904;10.738;2023-07-31T07:49:01;21.40;59.80
74294;DHT22;64044;59.904;10.738;2023-07-31T07:51:27;21.40;59.60
74294;DHT22;64044;59.904;10.738;2023-07-31T07:53:55;21.50;59.80
74294;DHT22;64044;59.904;10.738;2023-07-31T07:56:21;21.60;59.70
74294;DHT22;64044;59.904;10.738;2023-07-31T07:58:50;21.60;59.30
74294;DHT22;64044;59.904;10.738;2023-07-31T08:01:16;21.70;59.20
74294;DHT22;64044;59.904;10.738;2023-07-31T08:03:42;21.70;59.00
74294;DHT22;64044;59.904;10.738;2023-07-31T08:06:08;21.80;58.90
74294;DHT22;64044;59.904;10.738;2023-07-31T08:08:35;21.90;58.70
74294;DHT22;64044;59.904;10.738;2023-07-31T08:11:01;21.90;58.50
74294;DHT22;64044;59.904;10.738;2023-07-31T08:13:27;21.90;58.50
74294;DHT22;64044;59.904;10.738;2023-07-31T08:15:53;22.00;58.30
74294;DHT22;64044;59.904;10.738;2023-07-31T08:18:18;22.00;58.10
74294;DHT22;64044;59.904;10.738;2023-07-31T08:20:44;22.00;58.00
74294;DHT22;64044;59.904;10.738;2023-07-31T08:23:10;22.10;58.00
74294;DHT22;64044;59.904;10.738;2023-07-31T08:25:36;22.10;57.90
74294;DHT22;64044;59.904;10.738;2023-07-31T08:28:03;22.20;57.70
74294;DHT22;64044;59.904;10.738;2023-07-31T08:30:29;22.20;57.50
74294;DHT22;64044;59.904;10.738;2023-07-31T08:32:54;22.30;57.70
74294;DHT22;64044;59.904;10.738;2023-07-31T08:35:20;22.40;57.30
74294;DHT22;64044;59.904;10.738;2023-07-31T08:37:46;22.40;57.10
74294;DHT22;64044;59.904;10.738;2023-07-31T08:40:12;22.40;57.00
74294;DHT22;64044;59.904;10.738;2023-07-31T08:42:46;22.40;56.80
74294;DHT22;64044;59.904;10.738;2023-07-31T08:45:17;22.40;56.50
74294;DHT22;64044;59.904;10.738;2023-07-31T08:47:45;22.50;56.70
74294;DHT22;64044;59.904;10.738;2023-07-31T08:50:13;22.50;56.80
74294;DHT22;64044;59.904;10.738;2023-07-31T08:52:39;22.50;56.60
74294;DHT22;64044;59.904;10.738;2023-07-31T08:55:06;22.60;56.50
74294;DHT22;64044;59.904;10.738;2023-07-31T08:57:35;22.60;56.40
74294;DHT22;64044;59.904;10.738;2023-07-31T09:00:02;22.60;56.50
74294;DHT22;64044;59.904;10.738;2023-07-31T09:02:38;22.60;56.50
74294;DHT22;64044;59.904;10.738;2023-07-31T09:05:07;22.60;56.20
74294;DHT22;64044;59.904;10.738;2023-07-31T09:07:35;22.60;56.40
74294;DHT22;64044;59.904;10.738;2023-07-31T09:10:02;22.60;56.10
74294;DHT22;64044;59.904;10.738;2023-07-31T09:12:28;22.60;56.00
74294;DHT22;64044;59.904;10.738;2023-07-31T09:14:54;22.60;56.00
74294;DHT22;64044;59.904;10.738;2023-07-31T09:17:35;22.60;55.80
74294;DHT22;64044;59.904;10.738;2023-07-31T09:20:22;22.60;55.40
74294;DHT22;64044;59.904;10.738;2023-07-31T09:22:48;22.60;55.20
74294;DHT22;64044;59.904;10.738;2023-07-31T09:28:00;22.60;55.60
74294;DHT22;64044;59.904;10.738;2023-07-31T09:30:26;22.60;55.70
74294;DHT22;64044;59.904;10.738;2023-07-31T09:33:04;22.70;56.00
74294;DHT22;64044;59.904;10.738;2023-07-31T09:35:34;22.80;56.30
74294;DHT22;64044;59.904;10.738;2023-07-31T09:38:05;22.80;56.00
74294;DHT22;64044;59.904;10.738;2023-07-31T09:40:36;22.80;55.70
74294;DHT22;64044;59.904;10.738;2023-07-31T09:43:07;22.80;55.60
74294;DHT22;64044;59.904;10.738;2023-07-31T09:45:34;22.80;55.30
74294;DHT22;64044;59.904;10.738;2023-07-31T09:48:00;22.90;55.50
74294;DHT22;64044;59.904;10.738;2023-07-31T09:50:25;22.80;55.20
74294;DHT22;64044;59.904;10.738;2023-07-31T09:52:52;22.80;54.90
74294;DHT22;64044;59.904;10.738;2023-07-31T09:55:19;22.80;54.90
74294;DHT22;64044;59.904;10.738;2023-07-31T09:57:46;22.80;55.00
74294;DHT22;64044;59.904;10.738;2023-07-31T10:00:14;22.70;54.90
74294;DHT22;64044;59.904;10.738;2023-07-31T10:02:41;22.70;55.00
74294;DHT22;64044;59.904;10.738;2023-07-31T10:05:07;22.70;54.50
74294;DHT22;64044;59.904;10.738;2023-07-31T10:07:37;22.70;54.40
74294;DHT22;64044;59.904;10.738;2023-07-31T10:10:08;22.70;54.10
74294;DHT22;64044;59.904;10.738;2023-07-31T10:12:38;22.70;53.80
74294;DHT22;64044;59.904;10.738;2023-07-31T10:15:04;22.70;53.80
74294;DHT22;64044;59.904;10.738;2023-07-31T10:17:30;22.60;53.30
74294;DHT22;64044;59.904;10.738;2023-07-31T10:19:58;22.60;53.70
74294;DHT22;64044;59.904;10.738;2023-07-31T10:22:29;22.50;53.80
74294;DHT22;64044;59.904;10.738;2023-07-31T10:24:58;22.40;54.00
74294;DHT22;64044;59.904;10.738;2023-07-31T10:27:24;22.40;54.30
74294;DHT22;64044;59.904;10.738;2023-07-31T10:29:50;22.30;55.30
74294;DHT22;64044;59.904;10.738;2023-07-31T10:32:17;22.20;54.80
74294;DHT22;64044;59.904;10.738;2023-07-31T10:34:44;22.10;55.50
74294;DHT22;64044;59.904;10.738;2023-07-31T10:37:27;22.00;55.70
74294;DHT22;64044;59.904;10.738;2023-07-31T10:40:15;21.90;55.90
74294;DHT22;64044;59.904;10.738;2023-07-31T10:42:51;21.90;56.30
74294;DHT22;64044;59.904;10.738;2023-07-31T10:45:38;21.90;56.40
74294;DHT22;64044;59.904;10.738;2023-07-31T10:48:14;22.00;56.70
74294;DHT22;64044;59.904;10.738;2023-07-31T10:50:51;22.10;56.50
74294;DHT22;64044;59.904;10.738;2023-07-31T10:53:30;22.10;56.20
74294;DHT22;64044;59.904;10.738;2023-07-31T10:56:00;22.30;56.20
74294;DHT22;64044;59.904;10.738;2023-07-31T10:58:26;22.40;56.40
74294;DHT22;64044;59.904;10.738;2023-07-31T11:00:56;22.60;56.30
74294;DHT22;64044;59.904;10.738;2023-07-31T11:03:25;22.80;56.10
74294;DHT22;64044;59.904;10.738;2023-07-31T11:06:03;23.00;55.90
74294;DHT22;64044;59.904;10.738;2023-07-31T11:08:33;23.30;55.30
74294;DHT22;64044;59.904;10.738;2023-07-31T11:13:32;23.70;54.30
74294;DHT22;64044;59.904;10.738;2023-07-31T11:15:58;23.80;53.70
74294;DHT22;64044;59.904;10.738;2023-07-31T11:18:28;23.90;53.30
74294;DHT22;64044;59.904;10.738;2023-07-31T11:20:54;23.90;52.80
74294;DHT22;64044;59.904;10.738;2023-07-31T11:23:21;23.90;52.20
74294;DHT22;64044;59.904;10.738;2023-07-31T11:25:47;23.80;52.10
74294;DHT22;64044;59.904;10.738;2023-07-31T11:28:14;23.80;52.40
74294;DHT22;64044;59.904;10.738;2023-07-31T11:30:42;23.70;52.20
74294;DHT22;64044;59.904;10.738;2023-07-31T11:33:09;23.60;52.30
74294;DHT22;64044;59.904;10.738;2023-07-31T11:35:47;23.50;52.50
74294;DHT22;64044;59.904;10.738;2023-07-31T11:38:33;23.40;53.00
74294;DHT22;64044;59.904;10.738;2023-07-31T11:41:01;23.20;52.80
74294;DHT22;64044;59.904;10.738;2023-07-31T11:43:28;23.00;53.00
74294;DHT22;64044;59.904;10.738;2023-07-31T11:45:58;22.80;53.60
74294;DHT22;64044;59.904;10.738;2023-07-31T11:48:29;22.60;54.40
74294;DHT22;64044;59.904;10.738;2023-07-31T11:51:00;22.30;54.60
74294;DHT22;64044;59.904;10.738;2023-07-31T11:53:49;22.10;55.10
74294;DHT22;64044;59.904;10.738;2023-07-31T11:56:17;21.90;55.50
74294;DHT22;64044;59.904;10.738;2023-07-31T11:58:47;21.70;55.80
74294;DHT22;64044;59.904;10.738;2023-07-31T12:01:15;21.50;56.40
74294;DHT22;64044;59.904;10.738;2023-07-31T12:03:41;21.40;57.40
74294;DHT22;64044;59.904;10.738;2023-07-31T12:06:08;21.40;57.90
74294;DHT22;64044;59.904;10.738;2023-07-31T12:08:34;21.40;58.00
74294;DHT22;64044;59.904;10.738;2023-07-31T12:11:07;21.50;57.90
74294;DHT22;64044;59.904;10.738;2023-07-31T12:13:35;21.50;58.00
74294;DHT22;64044;59.904;10.738;2023-07-31T12:16:02;21.50;57.60
74294;DHT22;64044;59.904;10.738;2023-07-31T12:18:30;21.50;57.50
74294;DHT22;64044;59.904;10.738;2023-07-31T12:21:00;21.60;57.20
74294;DHT22;64044;59.904;10.738;2023-07-31T12:23:32;21.60;57.40
74294;DHT22;64044;59.904;10.738;2023-07-31T12:26:12;21.70;57.70
74294;DHT22;64044;59.904;10.738;2023-07-31T12:28:45;21.80;57.90
74294;DHT22;64044;59.904;10.738;2023-07-31T12:31:21;21.90;57.70
74294;DHT22;64044;59.904;10.738;2023-07-31T12:33:50;21.90;57.20
74294;DHT22;64044;59.904;10.738;2023-07-31T12:36:21;22.00;57.20
74294;DHT22;64044;59.904;10.738;2023-07-31T12:38:46;22.10;57.30
74294;DHT22;64044;59.904;10.738;2023-07-31T12:41:12;22.20;57.10
74294;DHT22;64044;59.904;10.738;2023-07-31T12:43:40;22.20;56.90
74294;DHT22;64044;59.904;10.738;2023-07-31T12:46:07;22.30;56.90
74294;DHT22;64044;59.904;10.738;2023-07-31T12:48:36;22.40;56.80
74294;DHT22;64044;59.904;10.738;2023-07-31T12:51:02;22.50;57.00
74294;DHT22;64044;59.904;10.738;2023-07-31T12:53:29;22.60;57.10
74294;DHT22;64044;59.904;10.738;2023-07-31T12:55:55;22.80;57.00
74294;DHT22;64044;59.904;10.738;2023-07-31T12:58:21;22.90;56.70
74294;DHT22;64044;59.904;10.738;2023-07-31T13:00:47;23.10;56.50
74294;DHT22;64044;59.904;10.738;2023-07-31T13:03:12;23.30;56.30
74294;DHT22;64044;59.904;10.738;2023-07-31T13:05:38;23.40;56.00
74294;DHT22;64044;59.904;10.738;2023-07-31T13:08:04;23.60;55.40
74294;DHT22;64044;59.904;10.738;2023-07-31T13:10:30;23.70;55.00
74294;DHT22;64044;59.904;10.738;2023-07-31T13:12:56;23.80;54.90
74294;DHT22;64044;59.904;10.738;2023-07-31T13:15:22;24.00;55.00
74294;DHT22;64044;59.904;10.738;2023-07-31T13:17:47;24.20;55.60
74294;DHT22;64044;59.904;10.738;2023-07-31T13:20:13;24.50;56.10
74294;DHT22;64044;59.904;10.738;2023-07-31T13:22:39;25.00;56.30
74294;DHT22;64044;59.904;10.738;2023-07-31T13:25:05;25.60;56.20
74294;DHT22;64044;59.904;10.738;2023-07-31T13:27:31;26.20;55.30
74294;DHT22;64044;59.904;10.738;2023-07-31T13:29:57;26.80;54.10
74294;DHT22;64044;59.904;10.738;2023-07-31T13:32:23;27.30;52.50
74294;DHT22;64044;59.904;10.738;2023-07-31T13:34:49;27.60;50.80
74294;DHT22;64044;59.904;10.738;2023-07-31T13:37:15;27.90;49.90
74294;DHT22;64044;59.904;10.738;2023-07-31T13:39:41;28.00;48.30
74294;DHT22;64044;59.904;10.738;2023-07-31T13:42:08;28.10;47.50
74294;DHT22;64044;59.904;10.738;2023-07-31T13:44:41;28.10;47.20
74294;DHT22;64044;59.904;10.738;2023-07-31T13:47:07;28.30;46.90
74294;DHT22;64044;59.904;10.738;2023-07-31T13:49:34;28.60;47.60
74294;DHT22;64044;59.904;10.738;2023-07-31T13:52:00;28.90;47.70
74294;DHT22;64044;59.904;10.738;2023-07-31T13:54:26;29.30;46.90
74294;DHT22;64044;59.904;10.738;2023-07-31T13:56:52;29.60;45.80
74294;DHT22;64044;59.904;10.738;2023-07-31T13:59:19;29.90;44.60
74294;DHT22;64044;59.904;10.738;2023-07-31T14:01:45;30.00;43.50
74294;DHT22;64044;59.904;10.738;2023-07-31T14:04:11;30.00;42.40
74294;DHT22;64044;59.904;10.738;2023-07-31T14:06:37;30.00;41.60
74294;DHT22;64044;59.904;10.738;2023-07-31T14:09:03;29.90;41.90
74294;DHT22;64044;59.904;10.738;2023-07-31T14:11:30;30.00;42.70
74294;DHT22;64044;59.904;10.738;2023-07-31T14:13:56;30.00;42.70
74294;DHT22;64044;59.904;10.738;2023-07-31T14:16:22;30.10;42.20
74294;DHT22;64044;59.904;10.738;2023-07-31T14:18:48;30.20;41.60
74294;DHT22;64044;59.904;10.738;2023-07-31T14:21:14;30.50;42.10
74294;DHT22;64044;59.904;10.738;2023-07-31T14:23:40;30.80;41.90
74294;DHT22;64044;59.904;10.738;2023-07-31T14:26:06;31.00;40.90
74294;DHT22;64044;59.904;10.738;2023-07-31T14:28:32;31.10;39.90
74294;DHT22;64044;59.904;10.738;2023-07-31T14:30:58;31.10;38.70
74294;DHT22;64044;59.904;10.738;2023-07-31T14:33:24;31.00;37.80
74294;DHT22;64044;59.904;10.738;2023-07-31T14:35:49;30.80;37.70
74294;DHT22;64044;59.904;10.738;2023-07-31T14:38:15;30.50;37.30
74294;DHT22;64044;59.904;10.738;2023-07-31T14:40:41;30.20;37.20
74294;DHT22;64044;59.904;10.738;2023-07-31T14:43:07;29.90;37.60
74294;DHT22;64044;59.904;10.738;2023-07-31T14:45:33;29.60;37.90
74294;DHT22;64044;59.904;10.738;2023-07-31T14:47:58;29.30;38.20
74294;DHT22;64044;59.904;10.738;2023-07-31T14:50:25;29.00;38.90
74294;DHT22;64044;59.904;10.738;2023-07-31T14:52:51;28.80;38.60
74294;DHT22;64044;59.904;10.738;2023-07-31T14:55:17;28.60;38.80
74294;DHT22;64044;59.904;10.738;2023-07-31T14:57:43;28.30;39.10
74294;DHT22;64044;59.904;10.738;2023-07-31T15:00:09;28.20;40.30
74294;DHT22;64044;59.904;10.738;2023-07-31T15:02:36;28.40;41.40
74294;DHT22;64044;59.904;10.738;2023-07-31T15:05:02;28.70;41.70
74294;DHT22;64044;59.904;10.738;2023-07-31T15:07:28;29.00;41.30
74294;DHT22;64044;59.904;10.738;2023-07-31T15:09:54;29.60;41.60
74294;DHT22;64044;59.904;10.738;2023-07-31T15:12:19;30.20;40.80
74294;DHT22;64044;59.904;10.738;2023-07-31T15:14:45;30.80;40.50
74294;DHT22;64044;59.904;10.738;2023-07-31T15:17:11;31.40;39.80
74294;DHT22;64044;59.904;10.738;2023-07-31T15:19:37;32.10;38.60
74294;DHT22;64044;59.904;10.738;2023-07-31T15:22:05;32.70;37.70
74294;DHT22;64044;59.904;10.738;2023-07-31T15:24:31;33.10;36.00
74294;DHT22;64044;59.904;10.738;2023-07-31T15:26:57;33.30;34.70